Time;durP1;ratioP1;P1;durP2;ratioP2;P2;SDS_P1;SDS_P2;PMS_P1;PMS_P2;Temp;Humidity;BMP_temperature;BMP_pressure;BME280_temperature;BME280_humidity;BME280_pressure;Samples;Min_cycle;Max_cycle;Signal;HPM_P1;HPM_P2
2022/11/05 00:10:39;;;;;;;;;10.75;7.75;;;;;10.11;100.00;101606.75;5087614;27;45363;-76
2022/11/05 00:18:35;;;;;;;;;8.00;8.00;;;;;10.20;100.00;101614.00;5097628;27;45386;-75
2022/11/05 00:21:00;;;;;;;;;9.00;6.00;;;;;10.23;100.00;101608.81;5098163;27;61634;-75
2022/11/05 00:26:11;;;;;;;;;8.00;7.00;;;;;10.33;100.00;101618.75;5097621;27;45503;-75
2022/11/05 00:28:36;;;;;;;;;9.00;7.00;;;;;10.41;100.00;101624.25;5098606;27;45536;-76
2022/11/05 00:31:11;;;;;;;;;12.50;8.00;;;;;10.46;100.00;101615.56;5098656;27;45594;-76
2022/11/05 00:33:37;;;;;;;;;9.00;7.50;;;;;10.49;100.00;101607.75;5098802;27;45283;-75
2022/11/05 00:36:04;;;;;;;;;9.25;8.00;;;;;10.54;100.00;101602.53;5079480;27;46473;-76
2022/11/05 00:38:30;;;;;;;;;8.00;7.00;;;;;10.55;100.00;101603.47;5098505;27;45414;-76
2022/11/05 00:40:55;;;;;;;;;5.75;5.75;;;;;10.55;100.00;101608.75;5098158;27;55425;-75
2022/11/05 00:46:05;;;;;;;;;18.00;12.25;;;;;10.55;100.00;101620.19;5098632;27;45298;-75
2022/11/05 00:51:14;;;;;;;;;34.50;19.00;;;;;10.55;100.00;101625.47;5096062;27;45429;-75
2022/11/05 00:53:40;;;;;;;;;36.75;22.25;;;;;10.48;100.00;101613.84;5080294;27;45688;-75
2022/11/05 00:56:06;;;;;;;;;41.00;21.25;;;;;10.47;100.00;101622.63;5098187;27;46201;-75
2022/11/05 00:58:31;;;;;;;;;19.50;15.00;;;;;10.46;100.00;101614.69;5097858;27;52877;-75
2022/11/05 01:00:58;;;;;;;;;28.50;15.00;;;;;10.47;100.00;101621.75;5076147;28;58645;-75
2022/11/05 01:03:25;;;;;;;;;14.75;9.75;;;;;10.43;100.00;101620.78;5097871;27;45651;-75
2022/11/05 01:06:04;;;;;;;;;12.00;8.25;;;;;10.38;100.00;101608.31;5098209;27;45321;-75
2022/11/05 01:08:29;;;;;;;;;8.50;8.00;;;;;10.34;100.00;101604.72;5098121;27;45314;-75
2022/11/05 01:10:57;;;;;;;;;10.50;9.00;;;;;10.32;100.00;101611.69;5097622;27;60910;-75
2022/11/05 01:13:24;;;;;;;;;9.25;5.50;;;;;10.29;100.00;101614.28;5094373;27;45244;-76
2022/11/05 01:15:50;;;;;;;;;9.75;7.25;;;;;10.25;100.00;101598.34;5096898;27;45340;-76
2022/11/05 01:18:16;;;;;;;;;10.00;7.00;;;;;10.21;100.00;101607.88;5096844;27;45443;-75
2022/11/05 01:20:42;;;;;;;;;8.00;7.00;;;;;10.16;100.00;101607.75;5098333;27;45336;-75
2022/11/05 01:23:08;;;;;;;;;10.00;7.50;;;;;10.11;100.00;101604.09;5097981;27;45471;-75
2022/11/05 01:25:33;;;;;;;;;9.75;7.50;;;;;10.07;100.00;101604.03;5097754;27;46130;-76
2022/11/05 01:28:00;;;;;;;;;8.00;6.75;;;;;10.05;100.00;101605.69;5097021;27;63369;-75
2022/11/05 01:30:26;;;;;;;;;12.25;7.25;;;;;10.03;100.00;101615.34;5097898;27;45313;-76
2022/11/05 01:32:51;;;;;;;;;7.25;7.00;;;;;9.99;100.00;101617.00;5078801;27;55057;-76
2022/11/05 01:35:16;;;;;;;;;8.75;7.00;;;;;9.91;100.00;101611.53;5078577;27;68355;-75
2022/11/05 01:37:42;;;;;;;;;10.00;7.50;;;;;9.93;100.00;101622.13;5097511;27;45152;-75
2022/11/05 01:40:17;;;;;;;;;7.25;6.00;;;;;9.89;100.00;101631.69;5096750;27;45243;-76
2022/11/05 01:42:43;;;;;;;;;10.00;7.75;;;;;9.84;100.00;101628.03;5097709;27;45471;-75
2022/11/05 01:45:21;;;;;;;;;7.75;7.75;;;;;9.83;100.00;101628.88;5079308;27;46746;-75
2022/11/05 01:47:56;;;;;;;;;12.25;9.50;;;;;9.82;100.00;101629.75;5079046;27;45305;-75
2022/11/05 01:50:32;;;;;;;;;11.25;6.00;;;;;9.79;100.00;101629.66;5080066;27;45391;-76
2022/11/05 01:53:21;;;;;;;;;12.00;8.00;;;;;9.77;100.00;101623.47;5097428;27;45500;-76
2022/11/05 01:55:58;;;;;;;;;15.25;8.50;;;;;9.73;100.00;101616.31;5090305;27;46870;-76
2022/11/05 01:58:27;;;;;;;;;10.50;8.00;;;;;9.71;100.00;101626.81;5069035;28;45194;-75
2022/11/05 02:00:53;;;;;;;;;6.00;6.00;;;;;9.69;100.00;101625.91;5078971;27;45275;-75
2022/11/05 02:03:19;;;;;;;;;8.25;6.25;;;;;9.69;100.00;101636.44;5078347;27;60480;-76
2022/11/05 02:05:45;;;;;;;;;9.50;6.00;;;;;9.68;100.00;101634.63;5097240;27;46535;-75
2022/11/05 02:08:17;;;;;;;;;8.50;7.00;;;;;9.68;100.00;101626.72;5096954;27;45335;-75
2022/11/05 02:10:44;;;;;;;;;9.25;7.50;;;;;9.69;100.00;101617.06;5075619;28;45445;-76
2022/11/05 02:13:09;;;;;;;;;7.50;7.50;;;;;9.70;100.00;101624.16;5074347;27;55617;-75
2022/11/05 02:15:48;;;;;;;;;7.00;6.00;;;;;9.70;100.00;101613.59;5097246;27;46072;-75
2022/11/05 02:18:33;;;;;;;;;9.50;7.00;;;;;9.70;100.00;101618.88;5076352;27;45497;-75
2022/11/05 02:21:18;;;;;;;;;4.00;4.00;;;;;9.67;100.00;101613.50;5079238;27;45378;-75
2022/11/05 02:24:12;;;;;;;;;4.00;4.00;;;;;9.67;100.00;101624.06;5097028;27;45448;-76
2022/11/05 02:26:37;;;;;;;;;7.50;6.00;;;;;9.65;100.00;101625.78;5075723;27;45838;-75
2022/11/05 02:29:39;;;;;;;;;4.50;4.50;;;;;9.63;100.00;101627.44;5096870;27;45254;-75
2022/11/05 02:32:20;;;;;;;;;6.50;6.00;;;;;9.63;100.00;101630.97;5079246;27;45544;-76
2022/11/05 02:34:55;;;;;;;;;4.00;4.00;;;;;9.61;100.00;101622.16;5094045;27;45227;-75
2022/11/05 02:37:39;;;;;;;;;6.00;2.00;;;;;9.62;100.00;101626.56;5076370;27;45877;-75
2022/11/05 02:40:28;;;;;;;;;5.50;5.50;;;;;9.66;100.00;101632.81;5078835;27;45293;-75
2022/11/05 02:43:20;;;;;;;;;6.50;4.00;;;;;9.73;100.00;101631.22;5075305;28;45721;-75
2022/11/05 02:46:07;;;;;;;;;9.25;5.75;;;;;9.74;100.00;101620.72;5092594;27;45377;-75
2022/11/05 02:48:39;;;;;;;;;7.00;4.00;;;;;9.78;100.00;101622.59;5078572;27;46861;-74
2022/11/05 02:51:30;;;;;;;;;6.00;4.00;;;;;9.78;100.00;101625.22;5078052;27;46366;-76
2022/11/05 02:54:02;;;;;;;;;6.75;4.00;;;;;9.79;100.00;101613.81;5067732;27;45339;-75
2022/11/05 02:56:31;;;;;;;;;6.50;6.00;;;;;9.83;100.00;101620.97;5096832;27;45257;-75
2022/11/05 02:58:57;;;;;;;;;11.00;5.00;;;;;9.85;100.00;101619.25;5069799;27;47590;-75
2022/11/05 03:01:22;;;;;;;;;6.00;6.00;;;;;9.87;100.00;101611.41;5078291;27;45264;-75
2022/11/05 03:03:52;;;;;;;;;6.00;3.75;;;;;9.89;100.00;101602.66;5095880;27;59047;-75
2022/11/05 03:06:30;;;;;;;;;5.00;5.00;;;;;9.90;100.00;101604.44;5095519;27;45248;-75
2022/11/05 03:09:46;;;;;;;;;8.75;6.00;;;;;9.91;100.00;101611.53;5096372;27;47380;-75
2022/11/05 03:12:23;;;;;;;;;5.00;3.00;;;;;9.91;100.00;101611.53;5036225;28;45356;-75
2022/11/05 03:15:07;;;;;;;;;11.00;6.50;;;;;9.91;100.00;101610.66;5032966;28;45268;-74
2022/11/05 03:17:41;;;;;;;;;10.50;4.00;;;;;9.88;100.00;101608.81;5064327;28;45205;-76
2022/11/05 03:20:14;;;;;;;;;6.25;5.50;;;;;9.84;100.00;101613.94;5088660;27;46578;-76
2022/11/05 03:22:53;;;;;;;;;6.75;6.75;;;;;9.81;100.00;101617.41;5063152;27;45435;-75
2022/11/05 03:25:24;;;;;;;;;7.50;4.00;;;;;9.77;100.00;101609.38;5062877;28;45309;-75
2022/11/05 03:27:54;;;;;;;;;4.00;4.00;;;;;9.75;100.00;101609.34;5081890;27;45508;-75
2022/11/05 03:30:20;;;;;;;;;5.50;5.50;;;;;9.74;100.00;101596.97;5098416;27;45539;-76
2022/11/05 03:32:51;;;;;;;;;6.00;6.00;;;;;9.76;100.00;101597.06;5073554;27;45294;-75
2022/11/05 03:35:21;;;;;;;;;5.50;5.50;;;;;9.78;100.00;101598.84;5099632;27;45280;-76
2022/11/05 03:37:50;;;;;;;;;4.50;4.00;;;;;9.74;100.00;101599.63;5098407;27;45352;-76
2022/11/05 03:40:17;;;;;;;;;4.50;4.00;;;;;9.79;100.00;101611.19;5077942;28;45882;-75
2022/11/05 03:42:45;;;;;;;;;4.00;4.00;;;;;9.78;100.00;101598.84;5075085;28;45452;-76
2022/11/05 03:45:17;;;;;;;;;7.25;5.50;;;;;9.83;100.00;101594.59;5078033;28;45490;-75
2022/11/05 03:47:45;;;;;;;;;4.00;4.00;;;;;9.83;100.00;101591.97;5079193;27;45355;-76
2022/11/05 03:50:16;;;;;;;;;6.50;6.25;;;;;9.87;100.00;101601.75;5081187;27;45953;-75
2022/11/05 03:52:51;;;;;;;;;4.00;4.00;;;;;9.89;100.00;101588.59;5080794;27;45508;-76
2022/11/05 03:55:17;;;;;;;;;7.00;6.00;;;;;9.90;100.00;101601.81;5081186;27;45367;-75
2022/11/05 03:57:45;;;;;;;;;6.00;4.00;;;;;9.92;100.00;101602.75;5078621;27;45638;-75
2022/11/05 04:00:11;;;;;;;;;14.25;6.50;;;;;9.94;100.00;101602.78;5081191;27;46204;-75
2022/11/05 04:02:37;;;;;;;;;8.50;6.00;;;;;9.93;100.00;101586.06;5077550;28;45359;-76
2022/11/05 04:05:03;;;;;;;;;7.00;5.50;;;;;9.97;100.00;101584.41;5096387;27;63104;-75
2022/11/05 04:18:24;;;;;;;;;4.25;3.75;;;;;10.01;100.00;101603.84;5078541;27;45379;-75
2022/11/05 04:26:22;;;;;;;;;5.00;3.00;;;;;10.02;100.00;101614.44;5099014;27;45431;-75
2022/11/05 04:31:34;;;;;;;;;2.00;2.00;;;;;10.08;100.00;101626.91;5097806;27;45817;-75
2022/11/05 04:33:59;;;;;;;;;8.50;4.00;;;;;10.09;100.00;101623.41;5097826;27;55810;-76
2022/11/05 04:36:25;;;;;;;;;3.00;3.00;;;;;10.09;100.00;101618.13;5098009;27;58251;-75
2022/11/05 04:38:50;;;;;;;;;4.00;3.25;;;;;10.07;100.00;101619.84;5076482;28;57154;-75
2022/11/05 04:41:16;;;;;;;;;5.00;2.00;;;;;10.07;100.00;101625.13;5097419;27;60905;-75
2022/11/05 04:43:42;;;;;;;;;2.00;2.00;;;;;10.05;100.00;101622.44;5107747;27;45886;-75
2022/11/05 04:46:07;;;;;;;;;5.75;3.00;;;;;10.02;100.00;101621.47;5078779;27;45244;-75
2022/11/05 04:48:33;;;;;;;;;6.00;2.00;;;;;10.02;100.00;101608.28;5098858;27;45284;-76
2022/11/05 04:50:58;;;;;;;;;4.00;3.00;;;;;9.94;100.00;101606.31;5097357;27;66433;-75
2022/11/05 04:53:24;;;;;;;;;3.00;3.00;;;;;9.95;100.00;101621.28;5097798;27;61137;-74
2022/11/05 04:55:49;;;;;;;;;3.00;2.75;;;;;9.94;100.00;101614.22;5080224;27;45473;-76
2022/11/05 04:58:14;;;;;;;;;6.00;3.00;;;;;9.91;100.00;101622.09;5079293;27;63108;-76
2022/11/05 05:00:40;;;;;;;;;5.75;4.25;;;;;9.87;100.00;101628.13;5097375;27;71089;-75
2022/11/05 05:03:05;;;;;;;;;7.00;4.50;;;;;9.85;100.00;101628.91;5097294;27;67988;-76
2022/11/05 05:05:30;;;;;;;;;5.00;4.00;;;;;9.83;100.00;101633.28;5080116;27;45411;-75
2022/11/05 05:08:03;;;;;;;;;5.50;2.00;;;;;9.83;100.00;101633.28;5097866;27;46733;-75
2022/11/05 05:10:29;;;;;;;;;6.75;3.00;;;;;9.84;100.00;101640.31;5076326;28;47677;-76
2022/11/05 05:12:54;;;;;;;;;5.00;3.00;;;;;9.83;100.00;101638.56;5082479;27;45234;-75
2022/11/05 05:15:19;;;;;;;;;4.00;2.75;;;;;9.87;100.00;101640.44;5097519;27;55060;-75
2022/11/05 05:17:51;;;;;;;;;3.00;3.00;;;;;9.85;100.00;101642.09;5096523;27;58020;-75
2022/11/05 05:23:02;;;;;;;;;4.00;4.00;;;;;9.88;100.00;101640.47;5078022;27;45504;-75
2022/11/05 05:25:28;;;;;;;;;6.75;5.50;;;;;9.88;100.00;101639.56;5097877;27;45240;-75
2022/11/05 05:27:56;;;;;;;;;8.50;3.75;;;;;9.88;100.00;101640.47;5079083;27;59212;-75
2022/11/05 05:30:22;;;;;;;;;3.00;3.00;;;;;9.86;100.00;101636.00;5079604;27;46538;-75
2022/11/05 05:32:47;;;;;;;;;3.25;3.00;;;;;9.85;100.00;101634.19;5072970;28;63013;-74
2022/11/05 05:35:12;;;;;;;;;3.00;3.00;;;;;9.82;100.00;101640.28;5095907;27;45276;-75
2022/11/05 05:37:38;;;;;;;;;3.00;3.00;;;;;9.77;100.00;101643.66;5079458;27;45489;-75
2022/11/05 05:40:03;;;;;;;;;6.00;4.00;;;;;9.74;100.00;101639.19;5076118;28;46032;-75
2022/11/05 05:42:29;;;;;;;;;5.00;5.00;;;;;9.71;100.00;101641.75;5075027;27;45525;-75
2022/11/05 05:44:54;;;;;;;;;4.00;3.00;;;;;9.69;100.00;101640.78;5079765;27;45248;-75
2022/11/05 05:47:19;;;;;;;;;9.50;3.75;;;;;9.67;100.00;101651.31;5093435;27;55100;-76
2022/11/05 05:49:45;;;;;;;;;7.50;4.00;;;;;9.63;100.00;101652.06;5097345;27;45747;-76
2022/11/05 05:52:10;;;;;;;;;7.00;3.00;;;;;9.63;100.00;101645.91;5096647;27;67584;-76
2022/11/05 05:54:36;;;;;;;;;5.00;3.75;;;;;9.58;100.00;101642.25;5085198;27;45556;-75
2022/11/05 05:57:02;;;;;;;;;3.00;3.00;;;;;9.58;100.00;101651.03;5096985;27;56101;-76
2022/11/05 05:59:27;;;;;;;;;4.00;4.00;;;;;9.56;100.00;101630.78;5082817;27;45471;-75
2022/11/05 06:01:53;;;;;;;;;7.25;3.00;;;;;9.56;100.00;101644.84;5097555;27;45200;-75
2022/11/05 06:04:18;;;;;;;;;3.75;3.75;;;;;9.52;100.00;101644.72;5096926;27;57832;-75
2022/11/05 06:06:45;;;;;;;;;6.25;3.50;;;;;9.56;100.00;101654.50;5097474;27;45348;-76
2022/11/05 06:09:11;;;;;;;;;6.00;3.00;;;;;9.55;100.00;101653.63;5075569;28;45921;-75
2022/11/05 06:11:37;;;;;;;;;2.00;2.00;;;;;9.54;100.00;101649.19;5094106;27;45487;-76
2022/11/05 06:14:02;;;;;;;;;7.75;3.75;;;;;9.53;100.00;101647.38;5093540;27;49235;-76
2022/11/05 06:16:28;;;;;;;;;3.00;3.00;;;;;9.52;100.00;101655.25;5078131;27;45359;-76
2022/11/05 06:18:53;;;;;;;;;4.50;3.00;;;;;9.52;100.00;101653.50;5097413;27;46544;-75
2022/11/05 06:21:19;;;;;;;;;5.00;3.00;;;;;9.55;100.00;101668.53;5096241;27;66050;-75
2022/11/05 06:23:44;;;;;;;;;6.00;3.00;;;;;9.56;100.00;101663.31;5097100;27;45535;-76
2022/11/05 06:26:13;;;;;;;;;8.00;4.50;;;;;9.57;100.00;101673.00;5095034;27;58412;-75
2022/11/05 06:28:40;;;;;;;;;5.25;3.00;;;;;9.57;100.00;101669.47;5095639;27;46836;-75
2022/11/05 06:31:06;;;;;;;;;5.00;3.00;;;;;9.58;100.00;101677.41;5078894;27;45351;-76
2022/11/05 06:33:31;;;;;;;;;4.50;2.75;;;;;9.62;100.00;101670.50;5096366;27;45459;-75
2022/11/05 06:35:58;;;;;;;;;7.00;4.00;;;;;9.64;100.00;101671.41;5075891;27;59701;-75
2022/11/05 06:38:24;;;;;;;;;3.75;3.50;;;;;9.65;100.00;101670.59;5075424;28;45790;-75
2022/11/05 06:40:49;;;;;;;;;4.50;3.00;;;;;9.64;100.00;101661.78;5074333;27;45488;-74
2022/11/05 06:43:14;;;;;;;;;3.00;3.00;;;;;9.64;100.00;101664.44;5097180;27;45353;-76
2022/11/05 06:45:40;;;;;;;;;6.00;3.00;;;;;9.67;100.00;101664.50;5097500;27;54248;-76
2022/11/05 06:48:05;;;;;;;;;4.00;4.00;;;;;9.67;100.00;101679.44;5078266;28;55315;-75
2022/11/05 06:50:30;;;;;;;;;3.50;3.50;;;;;9.69;100.00;101678.63;5095194;27;50851;-75
2022/11/05 06:52:57;;;;;;;;;7.00;4.50;;;;;9.70;100.00;101682.16;5078722;28;45540;-76
2022/11/05 06:55:24;;;;;;;;;5.00;4.00;;;;;9.73;100.00;101673.44;5094338;27;45405;-75
2022/11/05 06:57:50;;;;;;;;;3.75;3.00;;;;;9.73;100.00;101678.72;5080001;27;46151;-76
2022/11/05 07:00:16;;;;;;;;;4.00;3.00;;;;;9.77;100.00;101681.47;5081985;27;45301;-75
2022/11/05 07:02:42;;;;;;;;;5.75;5.75;;;;;9.79;100.00;101682.41;5078750;28;45560;-75
2022/11/05 07:05:09;;;;;;;;;7.75;4.00;;;;;9.80;100.00;101680.66;5081553;27;46163;-76
2022/11/05 07:07:36;;;;;;;;;3.25;3.25;;;;;9.84;100.00;101688.69;5081956;27;48145;-76
2022/11/05 07:10:01;;;;;;;;;3.25;3.00;;;;;9.87;100.00;101691.44;5098451;27;45317;-76
2022/11/05 07:12:26;;;;;;;;;7.25;5.00;;;;;9.89;100.00;101681.81;5100362;27;45436;-76
2022/11/05 07:14:52;;;;;;;;;2.00;2.00;;;;;9.88;100.00;101682.66;5095825;27;54346;-76
2022/11/05 07:17:17;;;;;;;;;4.00;4.00;;;;;9.90;100.00;101686.22;5073389;28;68993;-75
2022/11/05 07:19:42;;;;;;;;;7.50;4.00;;;;;9.94;100.00;101687.22;5088488;27;48547;-74
2022/11/05 07:22:08;;;;;;;;;7.50;6.50;;;;;9.96;100.00;101686.41;5077621;28;56823;-75
2022/11/05 07:24:33;;;;;;;;;6.75;4.00;;;;;10.00;100.00;101675.94;5068902;28;57892;-75
2022/11/05 07:26:58;;;;;;;;;4.00;4.00;;;;;10.05;100.00;101685.75;5096400;27;46569;-75
2022/11/05 07:29:24;;;;;;;;;7.50;7.50;;;;;10.10;100.00;101688.50;5099104;27;62226;-75
2022/11/05 07:31:49;;;;;;;;;3.50;3.50;;;;;10.11;100.00;101678.00;5099129;27;57096;-75
2022/11/05 07:34:14;;;;;;;;;4.00;4.00;;;;;10.18;100.00;101690.53;5099418;27;49354;-75
2022/11/05 07:36:40;;;;;;;;;3.50;3.00;;;;;10.23;100.00;101701.19;5099682;27;46796;-75
2022/11/05 07:39:05;;;;;;;;;4.00;4.00;;;;;10.30;100.00;101702.28;5099409;27;47948;-75
2022/11/05 07:41:30;;;;;;;;;8.50;4.00;;;;;10.32;100.00;101697.91;5077635;28;62899;-75
2022/11/05 07:43:56;;;;;;;;;4.75;4.00;;;;;10.37;100.00;101702.47;5093052;27;53773;-76
2022/11/05 07:46:21;;;;;;;;;5.25;3.00;;;;;10.42;100.00;101708.75;5081264;27;47693;-76
2022/11/05 07:48:46;;;;;;;;;3.00;1.75;;;;;10.46;100.00;101707.09;5098978;27;55341;-75
2022/11/05 07:51:12;;;;;;;;;3.50;2.75;;;;;10.52;100.00;101709.00;5098758;27;59386;-75
2022/11/05 07:53:37;;;;;;;;;3.00;2.50;;;;;10.58;100.00;101707.41;5081246;27;45438;-76
2022/11/05 07:56:03;;;;;;;;;4.00;3.00;;;;;10.66;100.00;101715.53;5098977;27;49046;-75
2022/11/05 07:58:28;;;;;;;;;2.00;2.00;;;;;10.71;100.00;101713.91;5098356;27;45307;-75
2022/11/05 08:00:53;;;;;;;;;7.50;3.75;;;;;10.75;100.00;101705.16;5077807;28;45473;-76
2022/11/05 08:03:19;;;;;;;;;7.50;2.50;;;;;10.80;100.00;101687.69;5079916;27;45281;-75
2022/11/05 08:05:46;;;;;;;;;2.00;2.00;;;;;10.88;100.00;101704.63;5098352;27;67204;-75
2022/11/05 08:08:13;;;;;;;;;4.25;2.00;;;;;10.94;100.00;101703.88;5080373;27;45335;-76
2022/11/05 08:10:39;;;;;;;;;3.00;2.00;;;;;10.98;100.00;101709.25;5097818;27;45355;-75
2022/11/05 08:13:05;;;;;;;;;3.00;2.00;;;;;11.05;100.00;101709.41;5077003;27;45653;-75
2022/11/05 08:15:31;;;;;;;;;4.33;3.33;;;;;11.06;100.00;101709.44;5065389;27;47752;-75
2022/11/05 08:17:58;;;;;;;;;4.00;4.00;;;;;11.15;100.00;101709.66;5074250;28;45450;-75
2022/11/05 08:20:23;;;;;;;;;3.33;2.33;;;;;11.20;100.00;101708.00;5090917;27;45361;-75
2022/11/05 08:22:49;;;;;;;;;3.00;1.33;;;;;11.29;100.00;101715.22;5098615;27;57406;-76
2022/11/05 08:25:15;;;;;;;;;2.33;2.33;;;;;11.35;100.00;101707.47;5097873;27;64201;-75
2022/11/05 08:27:40;;;;;;;;;2.67;2.67;;;;;11.42;100.00;101713.75;5080714;27;55161;-76
2022/11/05 08:30:07;;;;;;;;;2.00;2.00;;;;;11.41;100.00;101702.28;5098664;27;45261;-76
2022/11/05 08:32:32;;;;;;;;;2.33;2.33;;;;;11.50;100.00;101709.50;5098708;27;45191;-75
2022/11/05 08:34:58;;;;;;;;;1.67;1.67;;;;;11.52;100.00;101706.06;5080182;27;46226;-75
2022/11/05 08:37:23;;;;;;;;;3.67;2.67;;;;;11.57;100.00;101705.28;5097978;27;62626;-75
2022/11/05 08:39:49;;;;;;;;;2.00;2.00;;;;;11.63;100.00;101713.31;5098775;27;45321;-75
2022/11/05 08:42:14;;;;;;;;;7.00;2.00;;;;;11.72;100.00;101717.06;5098293;27;56812;-75
2022/11/05 08:44:39;;;;;;;;;4.00;1.00;;;;;11.83;100.00;101721.72;5098127;27;52363;-75
2022/11/05 08:47:05;;;;;;;;;4.00;2.33;;;;;11.92;100.00;101720.13;5098731;27;45455;-75
2022/11/05 08:49:30;;;;;;;;;4.00;2.00;;;;;12.01;100.00;101722.94;5097681;27;56357;-75
2022/11/05 08:51:55;;;;;;;;;2.00;2.00;;;;;12.06;100.00;101720.41;5098876;27;45350;-77
2022/11/05 08:54:21;;;;;;;;;2.00;2.00;;;;;12.15;100.00;101736.47;5097256;27;69814;-75
2022/11/05 08:56:46;;;;;;;;;2.00;2.00;;;;;12.19;100.00;101745.34;5097676;27;61474;-75
2022/11/05 08:59:11;;;;;;;;;3.67;1.67;;;;;12.27;100.00;101738.44;5097768;27;55406;-76
2022/11/05 09:01:37;;;;;;;;;2.00;1.00;;;;;12.30;100.00;101752.66;5097644;27;54943;-75
2022/11/05 09:04:02;;;;;;;;;1.67;1.67;;;;;12.34;100.00;101737.69;5079451;27;56986;-76
2022/11/05 09:06:28;;;;;;;;;2.33;2.33;;;;;12.38;100.00;101738.66;5098112;27;45405;-76
2022/11/05 09:08:53;;;;;;;;;6.67;3.00;;;;;12.42;100.00;101736.09;5093295;27;45426;-75
2022/11/05 09:11:19;;;;;;;;;2.00;2.00;;;;;12.47;100.00;101739.72;5263974;22;47119;-75
2022/11/05 09:13:44;;;;;;;;;1.67;1.00;;;;;12.51;100.00;101727.38;5034611;28;66377;-75
2022/11/05 09:16:27;;;;;;;;;2.33;2.00;;;;;12.58;100.00;101729.28;5050100;28;59894;-75
2022/11/05 09:18:54;;;;;;;;;4.00;2.00;;;;;12.63;100.00;101726.72;5077901;28;45336;-75
2022/11/05 09:21:20;;;;;;;;;2.00;2.00;;;;;12.66;100.00;101725.00;5076759;28;45514;-77
2022/11/05 09:23:46;;;;;;;;;4.00;2.33;;;;;12.69;100.00;101718.88;5074134;28;45692;-75
2022/11/05 09:26:12;;;;;;;;;2.00;2.00;;;;;12.72;100.00;101722.44;5053883;28;45360;-75
2022/11/05 09:28:38;;;;;;;;;4.67;2.00;;;;;12.79;100.00;101719.06;5070032;28;45339;-75
2022/11/05 09:31:08;;;;;;;;;5.33;4.00;;;;;12.88;100.00;101712.09;5050590;28;45460;-75
2022/11/05 09:33:36;;;;;;;;;2.00;2.00;;;;;12.92;100.00;101712.16;5051804;28;45496;-75
2022/11/05 09:36:01;;;;;;;;;2.00;1.00;;;;;12.96;100.00;101714.00;5042422;28;45465;-75
2022/11/05 09:38:27;;;;;;;;;5.00;2.00;;;;;13.02;100.00;101711.44;5046283;28;45304;-75
2022/11/05 09:40:58;;;;;;;;;2.00;2.00;;;;;13.05;100.00;101716.81;5059703;28;45493;-75
2022/11/05 09:43:27;;;;;;;;;6.33;3.67;;;;;13.06;100.00;101715.94;5075932;28;46992;-76
2022/11/05 09:45:56;;;;;;;;;4.33;1.33;;;;;13.09;100.00;101720.38;5055536;28;45540;-75
2022/11/05 09:48:24;;;;;;;;;3.00;1.67;;;;;13.11;100.00;101718.66;5066174;28;45528;-75
2022/11/05 09:50:51;;;;;;;;;2.00;2.00;;;;;13.15;100.00;101712.50;5046461;28;45459;-76
2022/11/05 09:53:18;;;;;;;;;2.33;1.00;;;;;13.20;100.00;101721.41;5052578;28;57839;-76
2022/11/05 09:55:51;;;;;;;;;5.00;1.33;;;;;13.27;100.00;101722.47;5043317;28;45316;-75
2022/11/05 09:58:21;;;;;;;;;2.33;2.00;;;;;13.33;100.00;101720.78;5047174;28;45452;-75
2022/11/05 10:00:51;;;;;;;;;3.00;1.00;;;;;13.41;100.00;101727.94;5048238;28;45408;-75
2022/11/05 10:03:20;;;;;;;;;4.67;1.67;;;;;13.50;100.00;101723.66;5058387;28;46819;-75
2022/11/05 10:05:47;;;;;;;;;2.00;2.00;;;;;13.57;100.00;101717.53;5055537;28;45336;-76
2022/11/05 10:08:18;;;;;;;;;1.00;1.00;;;;;13.59;100.00;101713.16;5043882;28;45348;-76
2022/11/05 10:10:48;;;;;;;;;2.00;2.00;;;;;13.60;100.00;101704.34;5039070;28;45364;-74
2022/11/05 10:13:31;;;;;;;;;1.33;1.00;;;;;13.67;100.00;101707.06;5055442;28;46819;-76
2022/11/05 10:16:03;;;;;;;;;1.00;1.00;;;;;13.70;100.00;101701.81;5066513;28;45416;-75
2022/11/05 10:18:39;;;;;;;;;4.00;2.00;;;;;13.71;100.00;101698.25;5058260;28;45307;-75
2022/11/05 10:21:05;;;;;;;;;2.33;1.00;;;;;13.74;100.00;101708.91;5071276;28;45558;-76
2022/11/05 10:23:31;;;;;;;;;1.67;1.00;;;;;13.73;100.00;101705.34;5092069;27;46248;-75
2022/11/05 10:26:04;;;;;;;;;5.00;1.67;;;;;13.75;100.00;101710.72;5075941;28;46095;-75
2022/11/05 10:28:31;;;;;;;;;2.33;1.67;;;;;13.78;100.00;101716.03;5074481;28;45462;-75
2022/11/05 10:30:59;;;;;;;;;1.00;1.00;;;;;13.79;100.00;101717.81;5078360;28;45560;-75
2022/11/05 10:33:31;;;;;;;;;1.67;1.00;;;;;13.79;100.00;101712.50;5090487;27;47528;-75
2022/11/05 10:36:01;;;;;;;;;1.00;1.00;;;;;13.78;100.00;101714.28;5081708;27;45425;-75
2022/11/05 10:38:26;;;;;;;;;4.67;1.00;;;;;13.75;100.00;101714.25;5059792;28;45397;-76
2022/11/05 10:41:34;;;;;;;;;2.67;1.00;;;;;13.78;100.00;101724.00;5060862;28;45232;-76
2022/11/05 10:44:34;;;;;;;;;2.00;2.00;;;;;13.83;100.00;101728.50;5056112;28;46441;-75
2022/11/05 10:47:08;;;;;;;;;2.00;2.00;;;;;13.92;100.00;101732.13;5065807;28;45419;-76
2022/11/05 10:50:04;;;;;;;;;2.00;2.00;;;;;14.00;100.00;101723.38;5076070;28;45279;-75
2022/11/05 10:52:38;;;;;;;;;2.00;2.00;;;;;14.08;100.00;101715.50;5068661;28;45420;-75
2022/11/05 10:55:17;;;;;;;;;3.00;1.00;;;;;14.14;100.00;101715.56;5068360;28;46817;-76
2022/11/05 10:57:42;;;;;;;;;1.33;1.33;;;;;14.19;100.00;101723.59;5082081;27;45388;-75
2022/11/05 11:00:14;;;;;;;;;2.00;1.00;;;;;14.23;100.00;101720.09;5069284;28;45504;-75
2022/11/05 11:02:45;;;;;;;;;1.00;1.00;;;;;14.24;100.00;101716.56;5063985;28;45371;-75
2022/11/05 11:05:21;;;;;;;;;1.00;1.00;;;;;14.28;100.00;101713.94;5061977;28;46836;-76
2022/11/05 11:07:56;;;;;;;;;4.00;1.33;;;;;14.33;100.00;101714.00;5060101;28;45359;-75
2022/11/05 11:10:23;;;;;;;;;3.33;2.00;;;;;14.31;100.00;101715.72;5072100;28;45371;-75
2022/11/05 11:12:49;;;;;;;;;2.33;1.00;;;;;14.34;100.00;101708.69;5068536;28;45367;-75
2022/11/05 11:15:20;;;;;;;;;1.67;1.67;;;;;14.35;100.00;101709.56;5077517;27;46560;-76
2022/11/05 11:17:46;;;;;;;;;2.33;2.00;;;;;14.36;100.00;101703.38;5061722;28;45522;-75
2022/11/05 11:20:29;;;;;;;;;1.00;1.00;;;;;14.39;100.00;101708.75;5071584;28;45483;-75
2022/11/05 11:23:12;;;;;;;;;2.67;2.67;;;;;14.40;100.00;101705.19;5071428;28;45417;-75
2022/11/05 11:25:47;;;;;;;;;2.00;2.00;;;;;14.46;100.00;101699.06;5068301;27;46819;-75
2022/11/05 11:28:20;;;;;;;;;2.67;2.00;;;;;14.53;100.00;101698.25;5077607;27;45465;-76
2022/11/05 11:30:48;;;;;;;;;2.00;1.00;;;;;14.62;100.00;101703.66;5078030;27;45543;-75
2022/11/05 11:33:19;;;;;;;;;1.00;1.00;;;;;14.70;100.00;101693.97;5076540;28;45440;-76
2022/11/05 11:35:45;;;;;;;;;1.33;1.00;;;;;14.76;100.00;101691.38;5077845;28;45837;-76
2022/11/05 11:38:12;;;;;;;;;2.00;1.00;;;;;14.84;100.00;101694.06;5078801;27;45629;-75
2022/11/05 11:40:38;;;;;;;;;2.33;1.67;;;;;14.91;100.00;101685.25;5077866;28;45457;-75
2022/11/05 11:43:13;;;;;;;;;2.00;1.00;;;;;14.93;100.00;101679.06;5071417;27;45220;-75
2022/11/05 11:45:48;;;;;;;;;2.00;1.00;;;;;14.98;100.00;101678.22;5077825;28;46580;-76
2022/11/05 11:48:17;;;;;;;;;2.00;1.00;;;;;15.02;100.00;101669.38;5068947;27;45466;-76
2022/11/05 11:50:44;;;;;;;;;0.00;0.00;;;;;15.09;100.00;101672.09;5077913;28;45479;-76
2022/11/05 11:53:18;;;;;;;;;3.00;1.00;;;;;15.13;100.00;101668.56;5067214;28;45367;-75
2022/11/05 11:56:02;;;;;;;;;0.67;0.67;;;;;15.20;100.00;101673.03;5067216;27;45397;-76
2022/11/05 11:58:38;;;;;;;;;1.67;1.00;;;;;15.36;100.00;101681.09;5078392;27;45496;-76
2022/11/05 12:01:44;;;;;;;;;1.00;1.00;;;;;15.54;100.00;101669.63;5079053;27;45313;-75
2022/11/05 12:04:18;;;;;;;;;2.00;1.00;;;;;15.64;100.00;101680.34;5092632;27;45450;-75
2022/11/05 12:06:55;;;;;;;;;3.33;1.00;;;;;15.67;100.00;101668.84;5075740;27;46845;-76
2022/11/05 12:09:46;;;;;;;;;2.00;1.00;;;;;15.60;100.00;101667.00;5086739;27;46217;-76
2022/11/05 12:12:15;;;;;;;;;2.33;1.00;;;;;15.52;100.00;101666.09;5087545;27;45548;-76
2022/11/05 12:14:56;;;;;;;;;2.00;1.00;;;;;15.42;100.00;101668.69;5075170;27;45469;-77